Prather, California
Current Conditions -  °F | °C
As of 12:53 AM on Thursday 27 Nov 2014 (Local Time) from KFAT Reporting Station
Haze Haze  
Wind Chill: 46°   Ceiling: Unl
Heat Index: 46°   Visibility: 5mi
Dew Point: 43°   Wind: 3mph
Humidity: 89%   Direction: 50°NE
Pressure: 30.23"   Gusts: NA
Location:  37.04°N, 119.51°W
Report Text: KFAT 270853Z 05003KT 5SM BR CLR 08/06 A3023 RMK AO2 SLP235 T00780061 58005
Loading
Personal Weather Stations






























Interactive Weather Map New forecast layout! Learn more

10-Day Weather Forecast

Advertisements
Track Severe Weather on mobile